Monday, November 20, 2017, 1:50 PM EST
Back to Local

KGFL, Floyd Bennett Memorial Airport

Location: Queensbury, NY, United States Lat: 43.333
Local Time: 1:50 PM EST (18:50 GMT) Lon: -73.617
Time Zone: US/Eastern Elev: 328 ft

Show me the last for .
Show Decoded

2017-11-20 12:53 METAR KGFL 201753Z AUTO 25012G20KT 10SM FEW039 SCT050 BKN090 01/M05 A2989 RMK
                 AO2 SLP131 T00111050 10017 21017 58013 =
2017-11-20 11:53 METAR KGFL 201653Z AUTO 22012G17KT 10SM OVC085 01/M07 A2991 RMK AO2 SLP137
                 T00111067 =
2017-11-20 10:53 METAR KGFL 201553Z AUTO 22009KT 10SM SCT043 BKN050 OVC085 01/M09 A2992 RMK AO2
                 SLP140 T00061089 =
2017-11-20 09:53 METAR KGFL 201453Z AUTO 22009KT 10SM BKN050 OVC075 M01/M09 A2993 RMK AO2 SLP144
                 T10061094 50014 =
2017-11-20 08:53 METAR KGFL 201353Z AUTO 24009KT 10SM OVC065 M01/M11 A2993 RMK AO2 SLP144
                 T10111106 =
2017-11-20 07:53 METAR KGFL 201253Z AUTO VRB03KT 10SM OVC070 M02/M11 A2990 RMK AO2 SLP134
                 T10171111 =
2017-11-20 06:53 METAR KGFL 201153Z AUTO 26007KT 10SM OVC070 M02/M11 A2989 RMK AO2 SLP130 60000
                 70002 T10171111 10006 21017 53034 =
2017-11-20 05:53 METAR KGFL 201053Z AUTO 28009KT 10SM OVC070 M01/M12 A2985 RMK AO2 SLP117
                 T10111117 =
2017-11-20 04:53 METAR KGFL 200953Z AUTO 27010G21KT 10SM SCT070 M01/M11 A2981 RMK AO2 SLP103
                 T10061111 =
2017-11-20 03:53 METAR KGFL 200853Z AUTO 27008G17KT 9SM BKN042 OVC055 M01/M07 A2979 RMK AO2
                 SNB38E50 SLP095 P0000 60000 T10061072 53029 =
2017-11-20 02:53 METAR KGFL 200753Z AUTO 29008G16KT 10SM OVC060 01/M09 A2975 RMK AO2 SLP081
                 T00061089 =
2017-11-20 01:53 METAR KGFL 200653Z AUTO 27004KT 10SM BKN050 BKN080 00/M07 A2973 RMK AO2 SLP074
                 T00001072 =
2017-11-20 00:53 METAR KGFL 200553Z AUTO 28007KT 10SM FEW050 OVC070 00/M07 A2970 RMK AO2 SLP066
                 T00001067 10022 21028 53016 =
2017-11-19 23:53 METAR KGFL 200453Z AUTO 28003KT 10SM CLR 00/M07 A2968 RMK AO2 SLP058 T00001067
                 401001006 =
2017-11-19 22:53 METAR KGFL 200353Z AUTO 27005KT 10SM CLR 01/M06 A2967 RMK AO2 SLP054 T00111061 =
2017-11-19 21:53 METAR KGFL 200253Z AUTO 24006KT 10SM CLR 01/M06 A2966 RMK AO2 SLP050 T00061061
                 51021 =
2017-11-19 20:53 METAR KGFL 200153Z AUTO 28009KT 10SM CLR 02/M06 A2964 RMK AO2 SLP042 T00171061 =
2017-11-19 19:53 METAR KGFL 200053Z AUTO 27009G16KT 230V290 10SM OVC047 02/M06 A2962 RMK AO2
                 SLP034 T00171056 =
2017-11-19 18:53 METAR KGFL 192353Z AUTO 27007KT 10SM OVC047 02/M05 A2960 RMK AO2 SLP028
                 T00171050 10044 20011 52016 =
2017-11-19 17:53 METAR KGFL 192253Z AUTO 28009KT 10SM BKN050 01/M05 A2957 RMK AO2 SLP019
                 T00111050 =
2017-11-19 16:53 METAR KGFL 192153Z AUTO 29012G16KT 10SM OVC044 02/M04 A2957 RMK AO2 SLP020
                 T00171044 =
2017-11-19 15:53 METAR KGFL 192053Z AUTO 29013G21KT 10SM BKN040 BKN055 02/M05 A2955 RMK AO2
                 SLP012 T00221050 53045 =
2017-11-19 14:53 METAR KGFL 191953Z AUTO 28009G22KT 240V310 10SM BKN041 03/M04 A2950 RMK AO2
                 SLP995 T00281044 =
2017-11-19 13:53 METAR KGFL 191853Z AUTO 29015G20KT 10SM BKN044 03/M04 A2945 RMK AO2 SLP978
                 T00281044 =

Support USWX by starting your Amazon purchase here.